sensor_id;sensor_type;location;lat;lon;timestamp;P1;durP1;ratioP1;P2;durP2;ratioP2
39022;SDS011;25908;51.984;5.928;2022-12-29T00:02:15;4.03;;;2.22;;
39022;SDS011;25908;51.984;5.928;2022-12-29T00:04:41;4.82;;;2.78;;
39022;SDS011;25908;51.984;5.928;2022-12-29T00:07:07;4.93;;;2.22;;
39022;SDS011;25908;51.984;5.928;2022-12-29T00:09:33;4.70;;;2.30;;
39022;SDS011;25908;51.984;5.928;2022-12-29T00:12:00;3.47;;;2.40;;
39022;SDS011;25908;51.984;5.928;2022-12-29T00:14:26;3.63;;;2.30;;
39022;SDS011;25908;51.984;5.928;2022-12-29T00:17:11;3.97;;;2.22;;
39022;SDS011;25908;51.984;5.928;2022-12-29T00:19:37;4.57;;;2.30;;
39022;SDS011;25908;51.984;5.928;2022-12-29T00:22:21;4.55;;;2.63;;
39022;SDS011;25908;51.984;5.928;2022-12-29T00:25:07;5.60;;;2.38;;
39022;SDS011;25908;51.984;5.928;2022-12-29T00:27:53;5.15;;;2.70;;
39022;SDS011;25908;51.984;5.928;2022-12-29T00:30:37;4.80;;;2.58;;
39022;SDS011;25908;51.984;5.928;2022-12-29T00:33:24;4.65;;;2.60;;
39022;SDS011;25908;51.984;5.928;2022-12-29T00:36:44;3.08;;;2.20;;
39022;SDS011;25908;51.984;5.928;2022-12-29T00:39:15;5.93;;;2.67;;
39022;SDS011;25908;51.984;5.928;2022-12-29T00:42:02;3.58;;;2.47;;
39022;SDS011;25908;51.984;5.928;2022-12-29T00:44:47;5.00;;;2.30;;
39022;SDS011;25908;51.984;5.928;2022-12-29T00:47:13;5.10;;;2.30;;
39022;SDS011;25908;51.984;5.928;2022-12-29T00:49:38;4.13;;;2.00;;
39022;SDS011;25908;51.984;5.928;2022-12-29T00:52:08;3.60;;;2.20;;
39022;SDS011;25908;51.984;5.928;2022-12-29T00:54:36;3.70;;;2.20;;
39022;SDS011;25908;51.984;5.928;2022-12-29T00:57:04;4.63;;;2.20;;
39022;SDS011;25908;51.984;5.928;2022-12-29T00:59:31;6.70;;;2.50;;
39022;SDS011;25908;51.984;5.928;2022-12-29T01:01:56;3.08;;;2.00;;
39022;SDS011;25908;51.984;5.928;2022-12-29T01:04:23;3.25;;;1.77;;
39022;SDS011;25908;51.984;5.928;2022-12-29T01:06:50;2.83;;;2.13;;
39022;SDS011;25908;51.984;5.928;2022-12-29T01:09:16;3.17;;;1.70;;
39022;SDS011;25908;51.984;5.928;2022-12-29T01:12:02;3.42;;;1.70;;
39022;SDS011;25908;51.984;5.928;2022-12-29T01:14:29;2.25;;;1.30;;
39022;SDS011;25908;51.984;5.928;2022-12-29T01:16:55;2.28;;;1.33;;
39022;SDS011;25908;51.984;5.928;2022-12-29T01:19:21;3.67;;;1.50;;
39022;SDS011;25908;51.984;5.928;2022-12-29T01:21:47;2.33;;;1.20;;
39022;SDS011;25908;51.984;5.928;2022-12-29T01:24:13;4.30;;;1.13;;
39022;SDS011;25908;51.984;5.928;2022-12-29T01:26:40;2.53;;;1.15;;
39022;SDS011;25908;51.984;5.928;2022-12-29T01:29:06;1.90;;;0.90;;
39022;SDS011;25908;51.984;5.928;2022-12-29T01:31:32;2.20;;;1.05;;
39022;SDS011;25908;51.984;5.928;2022-12-29T01:33:58;3.83;;;0.80;;
39022;SDS011;25908;51.984;5.928;2022-12-29T01:36:24;2.22;;;1.20;;
39022;SDS011;25908;51.984;5.928;2022-12-29T01:38:50;5.68;;;1.00;;
39022;SDS011;25908;51.984;5.928;2022-12-29T01:41:16;3.50;;;0.80;;
39022;SDS011;25908;51.984;5.928;2022-12-29T01:46:13;1.67;;;0.80;;
39022;SDS011;25908;51.984;5.928;2022-12-29T01:48:49;2.67;;;1.35;;
39022;SDS011;25908;51.984;5.928;2022-12-29T01:51:38;1.85;;;0.90;;
39022;SDS011;25908;51.984;5.928;2022-12-29T01:54:12;2.53;;;0.82;;
39022;SDS011;25908;51.984;5.928;2022-12-29T01:56:41;1.70;;;1.00;;
39022;SDS011;25908;51.984;5.928;2022-12-29T01:59:09;2.80;;;1.00;;
39022;SDS011;25908;51.984;5.928;2022-12-29T02:01:39;4.05;;;1.33;;
39022;SDS011;25908;51.984;5.928;2022-12-29T02:04:05;2.13;;;1.30;;
39022;SDS011;25908;51.984;5.928;2022-12-29T02:06:35;2.45;;;1.50;;
39022;SDS011;25908;51.984;5.928;2022-12-29T02:09:06;2.22;;;1.35;;
39022;SDS011;25908;51.984;5.928;2022-12-29T02:11:31;2.00;;;1.13;;
39022;SDS011;25908;51.984;5.928;2022-12-29T02:13:58;2.03;;;1.20;;
39022;SDS011;25908;51.984;5.928;2022-12-29T02:22:00;5.00;;;1.67;;
39022;SDS011;25908;51.984;5.928;2022-12-29T02:24:51;3.50;;;1.42;;
39022;SDS011;25908;51.984;5.928;2022-12-29T02:27:43;2.28;;;1.20;;
39022;SDS011;25908;51.984;5.928;2022-12-29T02:41:10;2.88;;;0.98;;
39022;SDS011;25908;51.984;5.928;2022-12-29T02:43:44;2.85;;;1.10;;
39022;SDS011;25908;51.984;5.928;2022-12-29T02:46:22;1.67;;;0.80;;
39022;SDS011;25908;51.984;5.928;2022-12-29T02:51:51;1.38;;;0.85;;
39022;SDS011;25908;51.984;5.928;2022-12-29T02:54:27;4.35;;;1.00;;
39022;SDS011;25908;51.984;5.928;2022-12-29T02:57:10;1.73;;;0.70;;
39022;SDS011;25908;51.984;5.928;2022-12-29T02:59:41;5.13;;;1.33;;
39022;SDS011;25908;51.984;5.928;2022-12-29T03:07:44;5.07;;;1.10;;
39022;SDS011;25908;51.984;5.928;2022-12-29T03:10:33;2.78;;;0.70;;
39022;SDS011;25908;51.984;5.928;2022-12-29T03:16:34;3.40;;;0.65;;
39022;SDS011;25908;51.984;5.928;2022-12-29T03:19:22;2.53;;;0.63;;
39022;SDS011;25908;51.984;5.928;2022-12-29T03:21:55;2.03;;;0.63;;
39022;SDS011;25908;51.984;5.928;2022-12-29T03:27:10;3.42;;;0.77;;
39022;SDS011;25908;51.984;5.928;2022-12-29T03:29:49;4.13;;;0.70;;
39022;SDS011;25908;51.984;5.928;2022-12-29T03:32:18;4.05;;;0.95;;
39022;SDS011;25908;51.984;5.928;2022-12-29T03:34:46;2.33;;;0.60;;
39022;SDS011;25908;51.984;5.928;2022-12-29T03:37:14;1.70;;;0.70;;
39022;SDS011;25908;51.984;5.928;2022-12-29T03:39:47;2.33;;;0.85;;
39022;SDS011;25908;51.984;5.928;2022-12-29T03:42:13;2.22;;;0.82;;
39022;SDS011;25908;51.984;5.928;2022-12-29T03:44:43;3.80;;;1.05;;
39022;SDS011;25908;51.984;5.928;2022-12-29T03:47:10;4.05;;;0.68;;
39022;SDS011;25908;51.984;5.928;2022-12-29T03:49:36;3.78;;;0.90;;
39022;SDS011;25908;51.984;5.928;2022-12-29T03:52:02;2.45;;;0.70;;
39022;SDS011;25908;51.984;5.928;2022-12-29T03:54:29;3.22;;;1.05;;
39022;SDS011;25908;51.984;5.928;2022-12-29T03:56:54;3.35;;;0.70;;
39022;SDS011;25908;51.984;5.928;2022-12-29T03:59:20;5.55;;;0.82;;
39022;SDS011;25908;51.984;5.928;2022-12-29T04:01:46;3.22;;;0.70;;
39022;SDS011;25908;51.984;5.928;2022-12-29T04:04:11;4.45;;;0.80;;
39022;SDS011;25908;51.984;5.928;2022-12-29T04:06:37;4.35;;;0.80;;
39022;SDS011;25908;51.984;5.928;2022-12-29T04:09:03;3.08;;;0.70;;
39022;SDS011;25908;51.984;5.928;2022-12-29T04:11:28;3.53;;;0.75;;
39022;SDS011;25908;51.984;5.928;2022-12-29T04:13:54;6.93;;;1.20;;
39022;SDS011;25908;51.984;5.928;2022-12-29T04:16:19;3.60;;;0.73;;
39022;SDS011;25908;51.984;5.928;2022-12-29T04:18:45;2.58;;;0.93;;
39022;SDS011;25908;51.984;5.928;2022-12-29T04:21:10;6.53;;;1.15;;
39022;SDS011;25908;51.984;5.928;2022-12-29T04:23:37;2.90;;;0.85;;
39022;SDS011;25908;51.984;5.928;2022-12-29T04:26:03;4.10;;;0.60;;
39022;SDS011;25908;51.984;5.928;2022-12-29T04:28:32;2.35;;;0.88;;
39022;SDS011;25908;51.984;5.928;2022-12-29T04:30:58;2.17;;;0.60;;
39022;SDS011;25908;51.984;5.928;2022-12-29T04:33:23;2.78;;;0.90;;
39022;SDS011;25908;51.984;5.928;2022-12-29T04:35:50;1.58;;;0.50;;
39022;SDS011;25908;51.984;5.928;2022-12-29T04:38:18;4.55;;;0.90;;
39022;SDS011;25908;51.984;5.928;2022-12-29T04:40:44;2.95;;;0.63;;
39022;SDS011;25908;51.984;5.928;2022-12-29T04:43:10;2.72;;;0.55;;
39022;SDS011;25908;51.984;5.928;2022-12-29T04:45:36;4.45;;;0.80;;
39022;SDS011;25908;51.984;5.928;2022-12-29T04:48:01;2.53;;;0.70;;
39022;SDS011;25908;51.984;5.928;2022-12-29T04:50:27;5.95;;;1.27;;
39022;SDS011;25908;51.984;5.928;2022-12-29T04:52:53;3.00;;;0.70;;
39022;SDS011;25908;51.984;5.928;2022-12-29T04:55:19;5.13;;;0.90;;
39022;SDS011;25908;51.984;5.928;2022-12-29T04:57:44;3.30;;;0.98;;
39022;SDS011;25908;51.984;5.928;2022-12-29T05:00:10;6.65;;;1.00;;
39022;SDS011;25908;51.984;5.928;2022-12-29T05:02:36;5.70;;;1.08;;
39022;SDS011;25908;51.984;5.928;2022-12-29T05:05:03;8.60;;;1.23;;
39022;SDS011;25908;51.984;5.928;2022-12-29T05:07:29;5.25;;;0.90;;
39022;SDS011;25908;51.984;5.928;2022-12-29T05:09:55;4.32;;;0.75;;
39022;SDS011;25908;51.984;5.928;2022-12-29T05:12:20;4.40;;;0.60;;
39022;SDS011;25908;51.984;5.928;2022-12-29T05:14:46;3.80;;;0.70;;
39022;SDS011;25908;51.984;5.928;2022-12-29T05:17:11;5.78;;;0.95;;
39022;SDS011;25908;51.984;5.928;2022-12-29T05:19:37;5.10;;;1.15;;
39022;SDS011;25908;51.984;5.928;2022-12-29T05:22:03;4.07;;;0.93;;
39022;SDS011;25908;51.984;5.928;2022-12-29T05:24:29;6.45;;;0.90;;
39022;SDS011;25908;51.984;5.928;2022-12-29T05:26:54;6.65;;;1.02;;
39022;SDS011;25908;51.984;5.928;2022-12-29T05:29:20;9.63;;;1.13;;
39022;SDS011;25908;51.984;5.928;2022-12-29T05:31:46;3.70;;;0.90;;
39022;SDS011;25908;51.984;5.928;2022-12-29T05:34:11;3.10;;;0.90;;
39022;SDS011;25908;51.984;5.928;2022-12-29T05:36:37;2.13;;;0.85;;
39022;SDS011;25908;51.984;5.928;2022-12-29T05:39:03;4.38;;;1.15;;
39022;SDS011;25908;51.984;5.928;2022-12-29T05:41:29;2.90;;;0.90;;
39022;SDS011;25908;51.984;5.928;2022-12-29T05:43:54;1.90;;;0.70;;
39022;SDS011;25908;51.984;5.928;2022-12-29T05:46:20;1.83;;;0.68;;
39022;SDS011;25908;51.984;5.928;2022-12-29T05:48:45;7.80;;;1.00;;
39022;SDS011;25908;51.984;5.928;2022-12-29T05:51:11;3.58;;;1.00;;
39022;SDS011;25908;51.984;5.928;2022-12-29T05:53:36;4.70;;;0.77;;
39022;SDS011;25908;51.984;5.928;2022-12-29T05:56:02;4.90;;;0.90;;
39022;SDS011;25908;51.984;5.928;2022-12-29T05:58:28;5.07;;;1.33;;
39022;SDS011;25908;51.984;5.928;2022-12-29T06:00:53;6.63;;;1.08;;
39022;SDS011;25908;51.984;5.928;2022-12-29T06:03:19;4.05;;;0.80;;
39022;SDS011;25908;51.984;5.928;2022-12-29T06:05:45;3.85;;;0.90;;
39022;SDS011;25908;51.984;5.928;2022-12-29T06:08:11;4.47;;;1.05;;
39022;SDS011;25908;51.984;5.928;2022-12-29T06:10:37;6.28;;;0.80;;
39022;SDS011;25908;51.984;5.928;2022-12-29T06:13:02;5.70;;;1.10;;
39022;SDS011;25908;51.984;5.928;2022-12-29T06:15:30;13.35;;;1.55;;
39022;SDS011;25908;51.984;5.928;2022-12-29T06:17:56;5.97;;;1.35;;
39022;SDS011;25908;51.984;5.928;2022-12-29T06:20:22;4.55;;;1.23;;
39022;SDS011;25908;51.984;5.928;2022-12-29T06:22:47;7.50;;;1.60;;
39022;SDS011;25908;51.984;5.928;2022-12-29T06:25:14;7.43;;;1.27;;
39022;SDS011;25908;51.984;5.928;2022-12-29T06:27:39;5.78;;;1.00;;
39022;SDS011;25908;51.984;5.928;2022-12-29T06:30:05;7.05;;;0.95;;
39022;SDS011;25908;51.984;5.928;2022-12-29T06:32:31;9.32;;;1.50;;
39022;SDS011;25908;51.984;5.928;2022-12-29T06:34:57;11.88;;;1.52;;
39022;SDS011;25908;51.984;5.928;2022-12-29T06:37:22;8.90;;;1.58;;
39022;SDS011;25908;51.984;5.928;2022-12-29T06:39:48;8.55;;;1.67;;
39022;SDS011;25908;51.984;5.928;2022-12-29T06:42:13;3.78;;;1.40;;
39022;SDS011;25908;51.984;5.928;2022-12-29T06:44:39;7.30;;;1.10;;
39022;SDS011;25908;51.984;5.928;2022-12-29T06:47:04;8.13;;;1.48;;
39022;SDS011;25908;51.984;5.928;2022-12-29T06:49:30;5.50;;;1.20;;
39022;SDS011;25908;51.984;5.928;2022-12-29T06:51:55;8.38;;;1.23;;
39022;SDS011;25908;51.984;5.928;2022-12-29T06:54:23;9.13;;;1.30;;
39022;SDS011;25908;51.984;5.928;2022-12-29T06:56:48;6.20;;;0.90;;
39022;SDS011;25908;51.984;5.928;2022-12-29T06:59:14;6.38;;;1.25;;
39022;SDS011;25908;51.984;5.928;2022-12-29T07:01:39;6.65;;;1.20;;
39022;SDS011;25908;51.984;5.928;2022-12-29T07:04:05;7.75;;;1.25;;
39022;SDS011;25908;51.984;5.928;2022-12-29T07:06:30;6.95;;;1.33;;
39022;SDS011;25908;51.984;5.928;2022-12-29T07:08:56;6.72;;;1.20;;
39022;SDS011;25908;51.984;5.928;2022-12-29T07:11:22;9.10;;;0.90;;
39022;SDS011;25908;51.984;5.928;2022-12-29T07:13:48;5.57;;;1.35;;
39022;SDS011;25908;51.984;5.928;2022-12-29T07:16:14;10.73;;;1.48;;
39022;SDS011;25908;51.984;5.928;2022-12-29T07:18:40;12.57;;;2.42;;
39022;SDS011;25908;51.984;5.928;2022-12-29T07:21:05;6.43;;;1.00;;
39022;SDS011;25908;51.984;5.928;2022-12-29T07:23:31;4.82;;;1.00;;
39022;SDS011;25908;51.984;5.928;2022-12-29T07:26:03;4.75;;;1.02;;
39022;SDS011;25908;51.984;5.928;2022-12-29T07:28:30;7.80;;;1.02;;
39022;SDS011;25908;51.984;5.928;2022-12-29T07:30:57;3.75;;;0.80;;
39022;SDS011;25908;51.984;5.928;2022-12-29T07:33:23;9.00;;;1.30;;
39022;SDS011;25908;51.984;5.928;2022-12-29T07:35:49;8.13;;;1.42;;
39022;SDS011;25908;51.984;5.928;2022-12-29T07:38:14;9.02;;;1.20;;
39022;SDS011;25908;51.984;5.928;2022-12-29T07:40:41;6.35;;;1.13;;
39022;SDS011;25908;51.984;5.928;2022-12-29T07:43:07;7.40;;;1.40;;
39022;SDS011;25908;51.984;5.928;2022-12-29T07:45:33;6.57;;;1.20;;
39022;SDS011;25908;51.984;5.928;2022-12-29T07:47:58;6.20;;;0.98;;
39022;SDS011;25908;51.984;5.928;2022-12-29T07:50:24;8.95;;;1.48;;
39022;SDS011;25908;51.984;5.928;2022-12-29T07:52:49;11.45;;;1.85;;
39022;SDS011;25908;51.984;5.928;2022-12-29T07:55:15;4.30;;;1.25;;
39022;SDS011;25908;51.984;5.928;2022-12-29T07:57:41;3.78;;;0.80;;
39022;SDS011;25908;51.984;5.928;2022-12-29T08:00:07;7.15;;;1.30;;
39022;SDS011;25908;51.984;5.928;2022-12-29T08:02:34;4.95;;;0.93;;
39022;SDS011;25908;51.984;5.928;2022-12-29T08:05:00;8.38;;;1.30;;
39022;SDS011;25908;51.984;5.928;2022-12-29T08:07:25;8.48;;;2.42;;
39022;SDS011;25908;51.984;5.928;2022-12-29T08:09:51;10.25;;;1.35;;
39022;SDS011;25908;51.984;5.928;2022-12-29T08:12:16;6.03;;;1.40;;
39022;SDS011;25908;51.984;5.928;2022-12-29T08:14:42;5.60;;;1.58;;
39022;SDS011;25908;51.984;5.928;2022-12-29T08:17:08;8.90;;;1.50;;
39022;SDS011;25908;51.984;5.928;2022-12-29T08:19:33;10.75;;;1.90;;
39022;SDS011;25908;51.984;5.928;2022-12-29T08:21:59;8.40;;;1.90;;
39022;SDS011;25908;51.984;5.928;2022-12-29T08:24:24;10.57;;;1.60;;
39022;SDS011;25908;51.984;5.928;2022-12-29T08:26:50;8.63;;;1.20;;
39022;SDS011;25908;51.984;5.928;2022-12-29T08:29:15;7.22;;;1.15;;
39022;SDS011;25908;51.984;5.928;2022-12-29T08:31:41;7.55;;;1.45;;
39022;SDS011;25908;51.984;5.928;2022-12-29T08:34:08;6.30;;;1.25;;
39022;SDS011;25908;51.984;5.928;2022-12-29T08:36:34;6.35;;;1.30;;
39022;SDS011;25908;51.984;5.928;2022-12-29T08:39:00;10.98;;;1.48;;
39022;SDS011;25908;51.984;5.928;2022-12-29T08:41:25;11.13;;;2.08;;
39022;SDS011;25908;51.984;5.928;2022-12-29T08:43:51;7.45;;;1.35;;
39022;SDS011;25908;51.984;5.928;2022-12-29T08:46:16;6.97;;;1.23;;
39022;SDS011;25908;51.984;5.928;2022-12-29T08:48:42;8.65;;;1.45;;
39022;SDS011;25908;51.984;5.928;2022-12-29T08:51:08;8.23;;;1.40;;
39022;SDS011;25908;51.984;5.928;2022-12-29T08:53:34;9.57;;;1.40;;
39022;SDS011;25908;51.984;5.928;2022-12-29T08:56:00;9.25;;;1.40;;
39022;SDS011;25908;51.984;5.928;2022-12-29T08:58:26;9.00;;;1.30;;
39022;SDS011;25908;51.984;5.928;2022-12-29T09:00:55;6.88;;;1.30;;
39022;SDS011;25908;51.984;5.928;2022-12-29T09:03:22;9.43;;;1.50;;
39022;SDS011;25908;51.984;5.928;2022-12-29T09:05:49;8.88;;;1.67;;
39022;SDS011;25908;51.984;5.928;2022-12-29T09:08:16;7.90;;;1.45;;
39022;SDS011;25908;51.984;5.928;2022-12-29T09:10:42;10.40;;;1.65;;
39022;SDS011;25908;51.984;5.928;2022-12-29T09:13:09;11.40;;;2.45;;
39022;SDS011;25908;51.984;5.928;2022-12-29T09:15:35;11.02;;;2.38;;
39022;SDS011;25908;51.984;5.928;2022-12-29T09:18:01;11.63;;;2.28;;
39022;SDS011;25908;51.984;5.928;2022-12-29T09:20:26;14.15;;;2.38;;
39022;SDS011;25908;51.984;5.928;2022-12-29T09:22:52;9.57;;;1.73;;
39022;SDS011;25908;51.984;5.928;2022-12-29T09:25:17;12.40;;;2.97;;
39022;SDS011;25908;51.984;5.928;2022-12-29T09:27:43;11.63;;;3.00;;
39022;SDS011;25908;51.984;5.928;2022-12-29T09:30:09;14.63;;;3.95;;
39022;SDS011;25908;51.984;5.928;2022-12-29T09:32:36;9.77;;;2.00;;
39022;SDS011;25908;51.984;5.928;2022-12-29T09:35:02;12.68;;;2.03;;
39022;SDS011;25908;51.984;5.928;2022-12-29T09:37:27;13.63;;;2.85;;
39022;SDS011;25908;51.984;5.928;2022-12-29T09:39:53;8.90;;;1.77;;
39022;SDS011;25908;51.984;5.928;2022-12-29T09:42:19;9.77;;;2.45;;
39022;SDS011;25908;51.984;5.928;2022-12-29T09:47:38;9.00;;;2.17;;
39022;SDS011;25908;51.984;5.928;2022-12-29T09:55:51;8.65;;;1.52;;
39022;SDS011;25908;51.984;5.928;2022-12-29T10:01:04;9.25;;;1.73;;
39022;SDS011;25908;51.984;5.928;2022-12-29T10:03:47;9.98;;;1.33;;
39022;SDS011;25908;51.984;5.928;2022-12-29T10:06:16;10.77;;;1.65;;
39022;SDS011;25908;51.984;5.928;2022-12-29T10:11:50;10.50;;;1.70;;
39022;SDS011;25908;51.984;5.928;2022-12-29T10:22:35;7.80;;;1.13;;
39022;SDS011;25908;51.984;5.928;2022-12-29T10:25:26;9.30;;;1.38;;
39022;SDS011;25908;51.984;5.928;2022-12-29T10:27:57;6.53;;;1.55;;
39022;SDS011;25908;51.984;5.928;2022-12-29T10:30:25;8.15;;;1.60;;
39022;SDS011;25908;51.984;5.928;2022-12-29T10:32:57;5.40;;;1.52;;
39022;SDS011;25908;51.984;5.928;2022-12-29T10:35:26;8.18;;;1.80;;
39022;SDS011;25908;51.984;5.928;2022-12-29T10:38:15;8.48;;;2.15;;
39022;SDS011;25908;51.984;5.928;2022-12-29T10:43:33;8.80;;;1.45;;
39022;SDS011;25908;51.984;5.928;2022-12-29T10:46:23;5.97;;;1.58;;
39022;SDS011;25908;51.984;5.928;2022-12-29T10:48:53;6.80;;;1.38;;
39022;SDS011;25908;51.984;5.928;2022-12-29T10:51:27;7.43;;;1.42;;
39022;SDS011;25908;51.984;5.928;2022-12-29T10:56:46;30.77;;;17.02;;
39022;SDS011;25908;51.984;5.928;2022-12-29T10:59:28;9.50;;;2.45;;
39022;SDS011;25908;51.984;5.928;2022-12-29T11:01:58;10.02;;;3.63;;
39022;SDS011;25908;51.984;5.928;2022-12-29T11:07:21;10.20;;;2.42;;
39022;SDS011;25908;51.984;5.928;2022-12-29T11:09:47;11.25;;;3.22;;
39022;SDS011;25908;51.984;5.928;2022-12-29T11:12:30;9.63;;;2.28;;
39022;SDS011;25908;51.984;5.928;2022-12-29T11:17:27;11.02;;;2.75;;
39022;SDS011;25908;51.984;5.928;2022-12-29T11:19:53;9.73;;;3.30;;
39022;SDS011;25908;51.984;5.928;2022-12-29T11:22:23;11.25;;;3.28;;
39022;SDS011;25908;51.984;5.928;2022-12-29T11:24:51;10.32;;;2.15;;
39022;SDS011;25908;51.984;5.928;2022-12-29T11:27:19;10.15;;;3.05;;
39022;SDS011;25908;51.984;5.928;2022-12-29T11:29:48;7.50;;;2.53;;
39022;SDS011;25908;51.984;5.928;2022-12-29T11:34:43;10.35;;;4.45;;
39022;SDS011;25908;51.984;5.928;2022-12-29T11:37:10;12.60;;;4.57;;
39022;SDS011;25908;51.984;5.928;2022-12-29T11:42:13;22.27;;;7.53;;
39022;SDS011;25908;51.984;5.928;2022-12-29T11:44:49;15.25;;;4.70;;
39022;SDS011;25908;51.984;5.928;2022-12-29T11:47:26;15.00;;;3.75;;
39022;SDS011;25908;51.984;5.928;2022-12-29T11:50:05;15.85;;;4.43;;
39022;SDS011;25908;51.984;5.928;2022-12-29T11:52:34;14.15;;;3.67;;
39022;SDS011;25908;51.984;5.928;2022-12-29T11:55:03;11.80;;;3.78;;
39022;SDS011;25908;51.984;5.928;2022-12-29T11:57:32;9.90;;;3.00;;
39022;SDS011;25908;51.984;5.928;2022-12-29T11:59:59;11.00;;;2.95;;
39022;SDS011;25908;51.984;5.928;2022-12-29T12:02:36;15.15;;;3.65;;
39022;SDS011;25908;51.984;5.928;2022-12-29T12:05:13;7.53;;;2.38;;
39022;SDS011;25908;51.984;5.928;2022-12-29T12:08:04;12.70;;;2.83;;
39022;SDS011;25908;51.984;5.928;2022-12-29T12:10:37;10.05;;;3.25;;
39022;SDS011;25908;51.984;5.928;2022-12-29T12:16:28;12.05;;;2.92;;
39022;SDS011;25908;51.984;5.928;2022-12-29T12:19:13;15.98;;;3.60;;
39022;SDS011;25908;51.984;5.928;2022-12-29T12:21:53;12.70;;;2.80;;
39022;SDS011;25908;51.984;5.928;2022-12-29T12:27:22;15.10;;;3.17;;
39022;SDS011;25908;51.984;5.928;2022-12-29T12:30:09;15.27;;;4.00;;
39022;SDS011;25908;51.984;5.928;2022-12-29T12:32:41;14.10;;;3.38;;
39022;SDS011;25908;51.984;5.928;2022-12-29T12:35:33;12.70;;;3.13;;
39022;SDS011;25908;51.984;5.928;2022-12-29T12:41:11;9.77;;;3.17;;
39022;SDS011;25908;51.984;5.928;2022-12-29T12:43:47;13.45;;;3.70;;
39022;SDS011;25908;51.984;5.928;2022-12-29T13:00:32;12.15;;;3.35;;
39022;SDS011;25908;51.984;5.928;2022-12-29T13:08:46;14.75;;;3.35;;
39022;SDS011;25908;51.984;5.928;2022-12-29T13:19:11;15.35;;;3.97;;
39022;SDS011;25908;51.984;5.928;2022-12-29T13:21:55;14.10;;;3.30;;
39022;SDS011;25908;51.984;5.928;2022-12-29T13:24:36;10.95;;;3.95;;
39022;SDS011;25908;51.984;5.928;2022-12-29T13:27:49;12.45;;;3.95;;
39022;SDS011;25908;51.984;5.928;2022-12-29T13:30:17;14.88;;;3.85;;
39022;SDS011;25908;51.984;5.928;2022-12-29T13:37:55;12.70;;;3.15;;
39022;SDS011;25908;51.984;5.928;2022-12-29T13:40:28;13.80;;;4.30;;
39022;SDS011;25908;51.984;5.928;2022-12-29T13:42:58;13.35;;;3.83;;
39022;SDS011;25908;51.984;5.928;2022-12-29T13:45:26;13.57;;;4.80;;
39022;SDS011;25908;51.984;5.928;2022-12-29T13:50:35;17.00;;;6.40;;
39022;SDS011;25908;51.984;5.928;2022-12-29T13:53:12;13.63;;;3.38;;
39022;SDS011;25908;51.984;5.928;2022-12-29T13:55:46;14.02;;;4.00;;
39022;SDS011;25908;51.984;5.928;2022-12-29T13:58:46;10.80;;;2.88;;
39022;SDS011;25908;51.984;5.928;2022-12-29T14:01:39;14.45;;;4.05;;
39022;SDS011;25908;51.984;5.928;2022-12-29T14:04:12;15.25;;;4.28;;
39022;SDS011;25908;51.984;5.928;2022-12-29T14:06:40;11.52;;;3.38;;
39022;SDS011;25908;51.984;5.928;2022-12-29T14:17:35;12.15;;;4.60;;
39022;SDS011;25908;51.984;5.928;2022-12-29T14:20:02;10.10;;;2.97;;
39022;SDS011;25908;51.984;5.928;2022-12-29T14:22:31;8.68;;;2.70;;
39022;SDS011;25908;51.984;5.928;2022-12-29T14:24:57;8.25;;;2.90;;
39022;SDS011;25908;51.984;5.928;2022-12-29T14:29:54;9.13;;;2.00;;
39022;SDS011;25908;51.984;5.928;2022-12-29T14:34:46;6.93;;;1.67;;
39022;SDS011;25908;51.984;5.928;2022-12-29T14:37:28;6.35;;;1.60;;
39022;SDS011;25908;51.984;5.928;2022-12-29T14:40:19;6.18;;;1.55;;
39022;SDS011;25908;51.984;5.928;2022-12-29T14:42:48;6.27;;;1.53;;
39022;SDS011;25908;51.984;5.928;2022-12-29T14:47:48;6.28;;;1.42;;
39022;SDS011;25908;51.984;5.928;2022-12-29T14:50:25;4.28;;;1.70;;
39022;SDS011;25908;51.984;5.928;2022-12-29T14:53:06;7.30;;;1.52;;
39022;SDS011;25908;51.984;5.928;2022-12-29T14:55:55;5.80;;;1.50;;
39022;SDS011;25908;51.984;5.928;2022-12-29T14:58:26;4.03;;;1.33;;
39022;SDS011;25908;51.984;5.928;2022-12-29T15:00:55;6.18;;;1.30;;
39022;SDS011;25908;51.984;5.928;2022-12-29T15:03:36;4.13;;;1.20;;
39022;SDS011;25908;51.984;5.928;2022-12-29T15:06:10;7.75;;;1.70;;
39022;SDS011;25908;51.984;5.928;2022-12-29T15:08:46;5.18;;;1.38;;
39022;SDS011;25908;51.984;5.928;2022-12-29T15:11:20;6.80;;;2.28;;
39022;SDS011;25908;51.984;5.928;2022-12-29T15:16:53;7.22;;;2.00;;
39022;SDS011;25908;51.984;5.928;2022-12-29T15:19:22;9.05;;;2.10;;
39022;SDS011;25908;51.984;5.928;2022-12-29T15:21:49;12.93;;;2.53;;
39022;SDS011;25908;51.984;5.928;2022-12-29T15:24:14;8.18;;;1.73;;
39022;SDS011;25908;51.984;5.928;2022-12-29T15:26:47;9.82;;;2.25;;
39022;SDS011;25908;51.984;5.928;2022-12-29T15:32:27;7.60;;;2.10;;
39022;SDS011;25908;51.984;5.928;2022-12-29T15:34:53;10.23;;;2.38;;
39022;SDS011;25908;51.984;5.928;2022-12-29T15:37:28;9.65;;;1.98;;
39022;SDS011;25908;51.984;5.928;2022-12-29T15:39:58;8.80;;;2.25;;
39022;SDS011;25908;51.984;5.928;2022-12-29T15:44:55;12.88;;;3.25;;
39022;SDS011;25908;51.984;5.928;2022-12-29T15:47:22;14.70;;;2.42;;
39022;SDS011;25908;51.984;5.928;2022-12-29T15:49:58;12.98;;;2.28;;
39022;SDS011;25908;51.984;5.928;2022-12-29T15:52:30;13.85;;;2.28;;
39022;SDS011;25908;51.984;5.928;2022-12-29T15:54:58;13.05;;;3.47;;
39022;SDS011;25908;51.984;5.928;2022-12-29T15:57:26;13.15;;;2.30;;
39022;SDS011;25908;51.984;5.928;2022-12-29T15:59:54;9.48;;;2.33;;
39022;SDS011;25908;51.984;5.928;2022-12-29T16:02:23;7.57;;;1.73;;
39022;SDS011;25908;51.984;5.928;2022-12-29T16:04:50;7.60;;;1.73;;
39022;SDS011;25908;51.984;5.928;2022-12-29T16:07:27;8.68;;;1.80;;
39022;SDS011;25908;51.984;5.928;2022-12-29T16:09:58;8.88;;;2.22;;
39022;SDS011;25908;51.984;5.928;2022-12-29T16:12:27;8.90;;;2.10;;
39022;SDS011;25908;51.984;5.928;2022-12-29T16:14:57;10.23;;;2.00;;
39022;SDS011;25908;51.984;5.928;2022-12-29T16:17:27;7.85;;;1.52;;
39022;SDS011;25908;51.984;5.928;2022-12-29T16:20:00;10.50;;;3.25;;
39022;SDS011;25908;51.984;5.928;2022-12-29T16:22:45;8.68;;;2.00;;
39022;SDS011;25908;51.984;5.928;2022-12-29T16:27:43;10.82;;;3.55;;
39022;SDS011;25908;51.984;5.928;2022-12-29T16:32:55;39.08;;;20.42;;
39022;SDS011;25908;51.984;5.928;2022-12-29T16:35:23;10.30;;;3.67;;
39022;SDS011;25908;51.984;5.928;2022-12-29T16:38:13;7.88;;;2.30;;
39022;SDS011;25908;51.984;5.928;2022-12-29T16:40:51;8.13;;;3.28;;
39022;SDS011;25908;51.984;5.928;2022-12-29T16:43:20;15.48;;;7.00;;
39022;SDS011;25908;51.984;5.928;2022-12-29T16:48:18;14.82;;;5.65;;
39022;SDS011;25908;51.984;5.928;2022-12-29T16:50:46;17.80;;;7.43;;
39022;SDS011;25908;51.984;5.928;2022-12-29T16:53:20;10.85;;;6.00;;
39022;SDS011;25908;51.984;5.928;2022-12-29T16:55:52;9.13;;;4.15;;
39022;SDS011;25908;51.984;5.928;2022-12-29T16:58:20;28.45;;;18.05;;
39022;SDS011;25908;51.984;5.928;2022-12-29T17:00:48;24.73;;;12.57;;
39022;SDS011;25908;51.984;5.928;2022-12-29T17:03:14;15.52;;;6.53;;
39022;SDS011;25908;51.984;5.928;2022-12-29T17:05:40;8.07;;;3.75;;
39022;SDS011;25908;51.984;5.928;2022-12-29T17:08:19;8.43;;;2.33;;
39022;SDS011;25908;51.984;5.928;2022-12-29T17:10:57;13.43;;;3.28;;
39022;SDS011;25908;51.984;5.928;2022-12-29T17:13:42;8.32;;;2.28;;
39022;SDS011;25908;51.984;5.928;2022-12-29T17:16:08;10.10;;;2.60;;
39022;SDS011;25908;51.984;5.928;2022-12-29T17:18:35;8.25;;;3.03;;
39022;SDS011;25908;51.984;5.928;2022-12-29T17:21:01;4.15;;;1.88;;
39022;SDS011;25908;51.984;5.928;2022-12-29T17:23:27;6.20;;;1.65;;
39022;SDS011;25908;51.984;5.928;2022-12-29T17:25:55;8.93;;;2.33;;
39022;SDS011;25908;51.984;5.928;2022-12-29T17:28:22;7.43;;;2.88;;
39022;SDS011;25908;51.984;5.928;2022-12-29T17:30:57;15.20;;;6.00;;